Flight Track Log - Related Links

Times and Time Zones

All times are in EDT time to prevent confusion due to time zone crossing. See the RPA3161 flight status page for this flight to view local times or setup timezone preferences in your user account.

Time Position Orientation Groundspeed Altitude Reporting Facility
EDT Latitude Longitude Course Direction KTS MPH feet Rate Location/Type
Mon 12:42:31 PM 44.3761 -73.1167 195° South 202 232 4,300  Level Boston Center
Mon 12:43:00 PM 44.1690 -73.2616 195° South  Level FlightAware Approximate
Mon 12:43:43 PM 44.3114 -73.1219 183° South 230 265 7,300  Level Boston Center
Mon 12:44:00 PM 44.0692 -73.2990 195° South  Level FlightAware Approximate
Mon 12:44:43 PM 44.2258 -73.1614 198° South 248 285 10,000  Level Boston Center
Mon 12:45:00 PM 43.9688 -73.3327 194° South  Level FlightAware Approximate
Mon 12:45:43 PM 44.1406 -73.1372 169° South 311 358 12,000  Level Boston Center
Mon 12:46:00 PM 43.8687 -73.3681 195° South  Level FlightAware Approximate
Mon 12:46:43 PM 44.0511 -73.0986 163° South 317 365 15,000  Level Boston Center
Mon 12:47:00 PM 43.7689 -73.4055 195° South  Level FlightAware Approximate
Mon 12:47:43 PM 43.9639 -73.0572 161° South 324 373 17,300  Level Boston Center
Mon 12:48:43 PM 43.8722 -73.0419 173° South 329 379 19,500 2,250 Climbing Boston Center
Mon 12:49:43 PM 43.7783 -73.0642 190° South 335 386 21,800 2,100 Climbing Boston Center
Mon 12:50:43 PM 43.6844 -73.0861 190° South 341 392 23,700 1,864 Climbing Boston Center
Mon 12:51:55 PM 43.5883 -73.1022 187° South 352 405 25,900 1,864 Climbing Boston Center
Mon 12:52:55 PM 43.4758 -73.1294 190° South 352 405 27,800 1,600 Climbing Boston Center
Mon 12:53:55 PM 43.3944 -73.1486 190° South 352 405 29,100 1,100 Climbing Boston Center
Mon 12:54:55 PM 43.2964 -73.1675 188° South 346 398 30,000 450 Climbing Boston Center
Mon 12:55:55 PM 43.1919 -73.1892 189° South 363 418 30,000  Level Boston Center
Mon 12:56:55 PM 43.0856 -73.2133 189° South 383 441 30,000  Level Boston Center
Mon 12:57:55 PM 42.9792 -73.2347 188° South 388 447 30,000  Level Boston Center
Mon 12:58:55 PM 42.8725 -73.2589 189° South 394 453 30,000  Level Boston Center
Mon 12:59:55 PM 42.7664 -73.2686 184° South 389 448 30,000  Level Boston Center
Mon 01:00:55 PM 42.6581 -73.2475 172° South 384 442 30,000  Level Boston Center
Mon 01:01:55 PM 42.5394 -73.2319 174° South 389 448 30,000  Level Boston Center
Mon 01:02:55 PM 42.4350 -73.2672 194° South 386 444 30,000  Level Boston Center
Mon 01:04:07 PM 42.3306 -73.2994 193° South 386 444 30,000  Level Boston Center
Mon 01:05:07 PM 42.2031 -73.3369 192° South 391 450 30,000  Level Boston Center
Mon 01:06:19 PM 42.1050 -73.3553 188° South 391 450 30,000  Level Boston Center
Mon 01:07:19 PM 41.9775 -73.3981 194° South 391 450 30,000  Level Boston Center
Mon 01:08:19 PM 41.8731 -73.4242 191° South 391 450 30,000  Level Boston Center
Mon 01:09:19 PM 41.7686 -73.4533 192° South 391 450 30,000  Level Boston Center
Mon 01:10:19 PM 41.6642 -73.4822 192° South 391 450 30,000  Level Boston Center
Mon 01:11:19 PM 41.5656 -73.5306 200° South 391 450 30,000  Level Boston Center
Mon 01:13:15 PM 41.4617 -73.7361 236° Southwest 384 442 30,000  Level New York Center
Mon 01:14:16 PM 41.4067 -73.8525 238° Southwest 389 448 30,000  Level New York Center
Mon 01:15:16 PM 41.3475 -73.9686 236° Southwest 389 448 30,000  Level New York Center
Mon 01:16:16 PM 41.2881 -74.0844 236° Southwest 383 441 30,000 -541 Level New York Center
Mon 01:17:18 PM 41.2286 -74.1975 235° Southwest 383 441 28,900 -1,008 Descending New York Center
Mon 01:18:15 PM 41.1644 -74.3181 235° Southwest 383 441 28,000 -454 Descending New York Center
Mon 01:19:17 PM 41.1067 -74.4361 237° Southwest 378 435 28,000  Level New York Center
Mon 01:20:17 PM 41.0489 -74.5514 236° Southwest 378 435 28,000  Level New York Center
Mon 01:21:15 PM 40.9892 -74.6581 233° Southwest 378 435 28,000  Level New York Center
Mon 01:22:15 PM 40.9314 -74.7672 235° Southwest 378 435 28,000  Level New York Center
Mon 01:23:15 PM 40.8781 -74.8711 236° Southwest 378 435 28,000  Level New York Center
Mon 01:24:16 PM 40.8219 -74.9803 236° Southwest 378 435 28,000  Level New York Center
Mon 01:25:17 PM 40.7636 -75.0944 236° Southwest 378 435 28,000  Level New York Center
Mon 01:26:15 PM 40.7053 -75.2058 235° Southwest 373 429 28,000  Level New York Center
Mon 01:27:15 PM 40.6469 -75.3169 235° Southwest 373 429 28,000  Level New York Center
Mon 01:28:16 PM 40.5886 -75.4278 235° Southwest 373 429 28,000  Level New York Center
Mon 01:29:16 PM 40.5319 -75.5358 235° Southwest 373 429 28,000 -689 Level New York Center
Mon 01:30:18 PM 40.4714 -75.6464 234° Southwest 373 429 26,600 -1,613 Descending New York Center
Mon 01:31:15 PM 40.4147 -75.7542 235° Southwest 368 423 24,800 -1,780 Descending New York Center
Mon 01:32:16 PM 40.3581 -75.8589 235° Southwest 363 418 23,100 -1,388 Descending New York Center
Mon 01:33:16 PM 40.2972 -75.9633 233° Southwest 363 418 22,000 -545 Descending New York Center
Mon 01:34:17 PM 40.2447 -76.0656 236° Southwest 363 418 22,000  Level New York Center
Mon 01:35:15 PM 40.1881 -76.1672 234° Southwest 358 412 22,000  Level New York Center
Mon 01:36:15 PM 40.1008 -76.2500 216° Southwest 353 406 22,000  Level New York Center
Mon 01:37:16 PM 40.0072 -76.2886 198° South 349 402 22,000  Level New York Center
Mon 01:38:16 PM 39.9158 -76.3303 199° South 349 402 22,000 -893 Level New York Center
Mon 01:39:17 PM 39.8200 -76.3739 199° South 359 413 20,200 -2,066 Descending New York Center
Mon 01:40:18 PM 39.7306 -76.4100 197° South 351 404 17,800 -2,287 Descending New York Center
Mon 01:42:18 PM 39.5500 -76.5000 201° Southwest 320 368 13,300 -1,967 Descending Potomac TRACON
Mon 01:43:18 PM 39.4667 -76.5333 197° South 315 362 11,900 -737 Descending Potomac TRACON
Mon 01:44:12 PM 39.3833 -76.5667 197° South 314 361 11,900  Level Potomac TRACON
Mon 01:45:12 PM 39.3000 -76.6000 197° South 315 362 11,900 -571 Level Potomac TRACON
Mon 01:46:18 PM 39.2167 -76.6333 197° South 306 352 10,700 -950 Descending Potomac TRACON
Mon 01:47:12 PM 39.1500 -76.6833 210° Southwest 283 326 10,000 -368 Descending Potomac TRACON
Mon 01:48:12 PM 39.1000 -76.7500 226° Southwest 280 322 10,000 -500 Level Potomac TRACON
Mon 01:49:12 PM 39.0333 -76.8167 218° Southwest 278 320 9,000 -1,100 Descending Potomac TRACON
Mon 01:50:12 PM 38.9833 -76.8833 226° Southwest 274 315 7,800 -1,289 Descending Potomac TRACON
Mon 01:51:13 PM 38.9667 -76.9667 256° West 264 304 6,400 -1,000 Descending Potomac TRACON
Mon 01:52:12 PM 39.0000 -77.0500 297° West 235 270 5,800 -605 Descending Potomac TRACON
Mon 01:53:12 PM 39.0333 -77.1000 311° West 181 208 5,200 -991 Descending Potomac TRACON
Mon 01:54:07 PM 39.0667 -77.1500 311° West 189 217 3,900 -1,200 Descending Potomac TRACON
Mon 01:55:07 PM 39.0333 -77.2000 229° Southwest 171 197 2,900 -429 Descending Potomac TRACON
Mon 01:56:13 PM 38.9833 -77.1833 165° South 183 211 3,000 -333 Climbing Potomac TRACON
Mon 01:57:13 PM 38.9500 -77.1333 131° Southeast 182 209 2,200 -737 Descending Potomac TRACON
Mon 01:58:07 PM 38.9167 -77.1000 142° Southeast 178 205 1,600 -667 Descending Potomac TRACON

Login

Don't have an account? Register now (free) for customized features, flight alerts, and more!